sensor_id;sensor_type;location;lat;lon;timestamp;P1;durP1;ratioP1;P2;durP2;ratioP2
68310;SDS011;55157;51.036;17.058;2023-10-08T00:01:53;1.58;;;0.50;;
68310;SDS011;55157;51.036;17.058;2023-10-08T00:04:18;1.00;;;0.60;;
68310;SDS011;55157;51.036;17.058;2023-10-08T00:06:44;1.48;;;0.50;;
68310;SDS011;55157;51.036;17.058;2023-10-08T00:09:09;2.55;;;0.75;;
68310;SDS011;55157;51.036;17.058;2023-10-08T00:11:34;1.48;;;0.63;;
68310;SDS011;55157;51.036;17.058;2023-10-08T00:14:00;0.93;;;0.68;;
68310;SDS011;55157;51.036;17.058;2023-10-08T00:16:25;1.20;;;0.70;;
68310;SDS011;55157;51.036;17.058;2023-10-08T00:18:52;0.93;;;0.60;;
68310;SDS011;55157;51.036;17.058;2023-10-08T00:21:17;1.88;;;0.68;;
68310;SDS011;55157;51.036;17.058;2023-10-08T00:23:43;2.90;;;0.90;;
68310;SDS011;55157;51.036;17.058;2023-10-08T00:26:08;3.38;;;0.80;;
68310;SDS011;55157;51.036;17.058;2023-10-08T00:28:33;1.27;;;0.60;;
68310;SDS011;55157;51.036;17.058;2023-10-08T00:31:01;2.78;;;1.08;;
68310;SDS011;55157;51.036;17.058;2023-10-08T00:33:26;1.08;;;0.70;;
68310;SDS011;55157;51.036;17.058;2023-10-08T00:35:53;0.95;;;0.55;;
68310;SDS011;55157;51.036;17.058;2023-10-08T00:38:18;2.75;;;0.73;;
68310;SDS011;55157;51.036;17.058;2023-10-08T00:40:43;1.42;;;0.82;;
68310;SDS011;55157;51.036;17.058;2023-10-08T00:43:08;1.10;;;0.68;;
68310;SDS011;55157;51.036;17.058;2023-10-08T00:45:34;2.15;;;1.35;;
68310;SDS011;55157;51.036;17.058;2023-10-08T00:47:59;0.70;;;0.60;;
68310;SDS011;55157;51.036;17.058;2023-10-08T00:50:24;0.55;;;0.52;;
68310;SDS011;55157;51.036;17.058;2023-10-08T00:52:51;1.13;;;0.60;;
68310;SDS011;55157;51.036;17.058;2023-10-08T00:55:16;1.77;;;0.90;;
68310;SDS011;55157;51.036;17.058;2023-10-08T00:57:41;0.65;;;0.60;;
68310;SDS011;55157;51.036;17.058;2023-10-08T01:00:07;4.05;;;0.82;;
68310;SDS011;55157;51.036;17.058;2023-10-08T01:02:33;1.98;;;0.75;;
68310;SDS011;55157;51.036;17.058;2023-10-08T01:04:58;0.77;;;0.63;;
68310;SDS011;55157;51.036;17.058;2023-10-08T01:07:23;2.08;;;0.95;;
68310;SDS011;55157;51.036;17.058;2023-10-08T01:09:51;1.40;;;0.80;;
68310;SDS011;55157;51.036;17.058;2023-10-08T01:12:17;1.90;;;0.98;;
68310;SDS011;55157;51.036;17.058;2023-10-08T01:14:43;1.00;;;0.70;;
68310;SDS011;55157;51.036;17.058;2023-10-08T01:17:08;1.75;;;0.88;;
68310;SDS011;55157;51.036;17.058;2023-10-08T01:19:33;6.25;;;1.15;;
68310;SDS011;55157;51.036;17.058;2023-10-08T01:22:04;1.15;;;0.65;;
68310;SDS011;55157;51.036;17.058;2023-10-08T01:24:30;1.05;;;0.60;;
68310;SDS011;55157;51.036;17.058;2023-10-08T01:26:55;3.05;;;0.95;;
68310;SDS011;55157;51.036;17.058;2023-10-08T01:29:20;3.10;;;0.98;;
68310;SDS011;55157;51.036;17.058;2023-10-08T01:31:46;2.47;;;1.00;;
68310;SDS011;55157;51.036;17.058;2023-10-08T01:34:11;2.30;;;0.90;;
68310;SDS011;55157;51.036;17.058;2023-10-08T01:36:36;1.58;;;0.70;;
68310;SDS011;55157;51.036;17.058;2023-10-08T01:39:03;2.45;;;1.00;;
68310;SDS011;55157;51.036;17.058;2023-10-08T01:41:28;1.00;;;0.73;;
68310;SDS011;55157;51.036;17.058;2023-10-08T01:43:53;4.15;;;1.33;;
68310;SDS011;55157;51.036;17.058;2023-10-08T01:46:18;3.80;;;0.77;;
68310;SDS011;55157;51.036;17.058;2023-10-08T01:48:44;1.35;;;0.80;;
68310;SDS011;55157;51.036;17.058;2023-10-08T01:51:09;1.45;;;0.70;;
68310;SDS011;55157;51.036;17.058;2023-10-08T01:53:34;1.85;;;0.70;;
68310;SDS011;55157;51.036;17.058;2023-10-08T01:56:01;2.00;;;0.80;;
68310;SDS011;55157;51.036;17.058;2023-10-08T01:58:27;1.02;;;0.52;;
68310;SDS011;55157;51.036;17.058;2023-10-08T02:00:53;1.00;;;0.73;;
68310;SDS011;55157;51.036;17.058;2023-10-08T02:03:19;1.35;;;0.70;;
68310;SDS011;55157;51.036;17.058;2023-10-08T02:05:44;1.42;;;0.80;;
68310;SDS011;55157;51.036;17.058;2023-10-08T02:08:10;1.98;;;1.08;;
68310;SDS011;55157;51.036;17.058;2023-10-08T02:10:36;3.20;;;1.02;;
68310;SDS011;55157;51.036;17.058;2023-10-08T02:13:02;1.55;;;0.82;;
68310;SDS011;55157;51.036;17.058;2023-10-08T02:15:28;2.13;;;0.95;;
68310;SDS011;55157;51.036;17.058;2023-10-08T02:17:53;4.55;;;2.38;;
68310;SDS011;55157;51.036;17.058;2023-10-08T02:20:18;2.60;;;1.35;;
68310;SDS011;55157;51.036;17.058;2023-10-08T02:22:43;3.72;;;1.33;;
68310;SDS011;55157;51.036;17.058;2023-10-08T02:25:09;4.68;;;1.42;;
68310;SDS011;55157;51.036;17.058;2023-10-08T02:27:34;3.17;;;1.15;;
68310;SDS011;55157;51.036;17.058;2023-10-08T02:30:01;5.88;;;1.20;;
68310;SDS011;55157;51.036;17.058;2023-10-08T02:32:26;3.05;;;1.40;;
68310;SDS011;55157;51.036;17.058;2023-10-08T02:34:51;6.22;;;1.58;;
68310;SDS011;55157;51.036;17.058;2023-10-08T02:37:16;3.85;;;1.42;;
68310;SDS011;55157;51.036;17.058;2023-10-08T02:39:42;2.70;;;1.10;;
68310;SDS011;55157;51.036;17.058;2023-10-08T02:42:07;2.03;;;1.23;;
68310;SDS011;55157;51.036;17.058;2023-10-08T02:44:32;2.67;;;1.00;;
68310;SDS011;55157;51.036;17.058;2023-10-08T02:46:59;3.15;;;0.70;;
68310;SDS011;55157;51.036;17.058;2023-10-08T02:49:24;3.42;;;1.00;;
68310;SDS011;55157;51.036;17.058;2023-10-08T02:51:50;3.75;;;0.68;;
68310;SDS011;55157;51.036;17.058;2023-10-08T02:54:16;1.50;;;0.70;;
68310;SDS011;55157;51.036;17.058;2023-10-08T02:56:41;1.27;;;0.77;;
68310;SDS011;55157;51.036;17.058;2023-10-08T02:59:07;0.75;;;0.70;;
68310;SDS011;55157;51.036;17.058;2023-10-08T03:01:32;2.88;;;0.82;;
68310;SDS011;55157;51.036;17.058;2023-10-08T03:03:59;3.33;;;1.30;;
68310;SDS011;55157;51.036;17.058;2023-10-08T03:06:24;2.03;;;1.05;;
68310;SDS011;55157;51.036;17.058;2023-10-08T03:08:49;2.58;;;1.20;;
68310;SDS011;55157;51.036;17.058;2023-10-08T03:11:14;2.50;;;1.25;;
68310;SDS011;55157;51.036;17.058;2023-10-08T03:13:39;2.90;;;1.10;;
68310;SDS011;55157;51.036;17.058;2023-10-08T03:16:05;3.53;;;1.48;;
68310;SDS011;55157;51.036;17.058;2023-10-08T03:18:30;3.45;;;1.23;;
68310;SDS011;55157;51.036;17.058;2023-10-08T03:20:57;2.65;;;1.30;;
68310;SDS011;55157;51.036;17.058;2023-10-08T03:23:22;2.75;;;1.05;;
68310;SDS011;55157;51.036;17.058;2023-10-08T03:25:47;3.58;;;1.20;;
68310;SDS011;55157;51.036;17.058;2023-10-08T03:28:12;5.90;;;1.30;;
68310;SDS011;55157;51.036;17.058;2023-10-08T03:30:38;5.20;;;1.45;;
68310;SDS011;55157;51.036;17.058;2023-10-08T03:33:03;7.57;;;1.50;;
68310;SDS011;55157;51.036;17.058;2023-10-08T03:35:28;3.35;;;1.20;;
68310;SDS011;55157;51.036;17.058;2023-10-08T03:37:55;4.95;;;1.27;;
68310;SDS011;55157;51.036;17.058;2023-10-08T03:40:21;3.83;;;1.40;;
68310;SDS011;55157;51.036;17.058;2023-10-08T03:42:46;3.17;;;1.23;;
68310;SDS011;55157;51.036;17.058;2023-10-08T03:45:11;3.58;;;1.42;;
68310;SDS011;55157;51.036;17.058;2023-10-08T03:47:37;3.00;;;1.23;;
68310;SDS011;55157;51.036;17.058;2023-10-08T03:50:02;8.00;;;1.67;;
68310;SDS011;55157;51.036;17.058;2023-10-08T03:52:27;3.72;;;1.30;;
68310;SDS011;55157;51.036;17.058;2023-10-08T03:54:54;3.00;;;1.10;;
68310;SDS011;55157;51.036;17.058;2023-10-08T03:57:19;4.40;;;1.60;;
68310;SDS011;55157;51.036;17.058;2023-10-08T03:59:44;6.05;;;1.17;;
68310;SDS011;55157;51.036;17.058;2023-10-08T04:02:10;4.00;;;1.10;;
68310;SDS011;55157;51.036;17.058;2023-10-08T04:04:35;3.47;;;1.02;;
68310;SDS011;55157;51.036;17.058;2023-10-08T04:07:00;2.92;;;1.50;;
68310;SDS011;55157;51.036;17.058;2023-10-08T04:09:25;4.10;;;1.00;;
68310;SDS011;55157;51.036;17.058;2023-10-08T04:11:52;2.83;;;1.30;;
68310;SDS011;55157;51.036;17.058;2023-10-08T04:14:18;4.07;;;1.30;;
68310;SDS011;55157;51.036;17.058;2023-10-08T04:16:43;2.50;;;1.23;;
68310;SDS011;55157;51.036;17.058;2023-10-08T04:19:09;3.58;;;1.15;;
68310;SDS011;55157;51.036;17.058;2023-10-08T04:21:34;2.85;;;0.98;;
68310;SDS011;55157;51.036;17.058;2023-10-08T04:23:59;3.28;;;1.38;;
68310;SDS011;55157;51.036;17.058;2023-10-08T04:26:24;3.97;;;1.42;;
68310;SDS011;55157;51.036;17.058;2023-10-08T04:28:52;3.97;;;1.45;;
68310;SDS011;55157;51.036;17.058;2023-10-08T04:31:18;6.55;;;2.10;;
68310;SDS011;55157;51.036;17.058;2023-10-08T04:33:43;5.10;;;1.90;;
68310;SDS011;55157;51.036;17.058;2023-10-08T04:36:09;4.07;;;1.17;;
68310;SDS011;55157;51.036;17.058;2023-10-08T04:38:34;5.85;;;1.50;;
68310;SDS011;55157;51.036;17.058;2023-10-08T04:40:59;2.75;;;1.38;;
68310;SDS011;55157;51.036;17.058;2023-10-08T04:43:25;5.38;;;1.92;;
68310;SDS011;55157;51.036;17.058;2023-10-08T04:45:51;4.05;;;1.30;;
68310;SDS011;55157;51.036;17.058;2023-10-08T04:48:17;3.63;;;1.55;;
68310;SDS011;55157;51.036;17.058;2023-10-08T04:50:42;7.05;;;2.15;;
68310;SDS011;55157;51.036;17.058;2023-10-08T04:53:07;7.80;;;2.08;;
68310;SDS011;55157;51.036;17.058;2023-10-08T04:55:32;9.00;;;2.10;;
68310;SDS011;55157;51.036;17.058;2023-10-08T04:57:57;4.78;;;1.60;;
68310;SDS011;55157;51.036;17.058;2023-10-08T05:00:23;6.63;;;1.77;;
68310;SDS011;55157;51.036;17.058;2023-10-08T05:02:49;4.70;;;2.20;;
68310;SDS011;55157;51.036;17.058;2023-10-08T05:05:15;9.10;;;1.60;;
68310;SDS011;55157;51.036;17.058;2023-10-08T05:07:40;4.35;;;1.67;;
68310;SDS011;55157;51.036;17.058;2023-10-08T05:10:06;4.47;;;1.58;;
68310;SDS011;55157;51.036;17.058;2023-10-08T05:12:31;5.80;;;1.60;;
68310;SDS011;55157;51.036;17.058;2023-10-08T05:14:56;10.00;;;2.25;;
68310;SDS011;55157;51.036;17.058;2023-10-08T05:17:22;8.40;;;2.47;;
68310;SDS011;55157;51.036;17.058;2023-10-08T05:19:48;8.13;;;2.67;;
68310;SDS011;55157;51.036;17.058;2023-10-08T05:22:15;11.52;;;3.25;;
68310;SDS011;55157;51.036;17.058;2023-10-08T05:24:40;5.45;;;1.70;;
68310;SDS011;55157;51.036;17.058;2023-10-08T05:27:06;12.38;;;2.65;;
68310;SDS011;55157;51.036;17.058;2023-10-08T05:29:31;5.10;;;2.38;;
68310;SDS011;55157;51.036;17.058;2023-10-08T05:31:56;11.60;;;2.97;;
68310;SDS011;55157;51.036;17.058;2023-10-08T05:34:22;8.27;;;2.20;;
68310;SDS011;55157;51.036;17.058;2023-10-08T05:36:48;5.38;;;2.03;;
68310;SDS011;55157;51.036;17.058;2023-10-08T05:39:14;7.28;;;2.05;;
68310;SDS011;55157;51.036;17.058;2023-10-08T05:41:39;9.07;;;2.55;;
68310;SDS011;55157;51.036;17.058;2023-10-08T05:44:05;7.72;;;2.45;;
68310;SDS011;55157;51.036;17.058;2023-10-08T05:46:30;7.65;;;2.45;;
68310;SDS011;55157;51.036;17.058;2023-10-08T05:48:56;7.90;;;3.42;;
68310;SDS011;55157;51.036;17.058;2023-10-08T05:51:21;6.47;;;1.98;;
68310;SDS011;55157;51.036;17.058;2023-10-08T05:53:48;6.63;;;2.40;;
68310;SDS011;55157;51.036;17.058;2023-10-08T05:56:13;9.80;;;2.97;;
68310;SDS011;55157;51.036;17.058;2023-10-08T05:58:38;7.22;;;2.65;;
68310;SDS011;55157;51.036;17.058;2023-10-08T06:01:03;6.13;;;2.25;;
68310;SDS011;55157;51.036;17.058;2023-10-08T06:03:29;4.93;;;1.80;;
68310;SDS011;55157;51.036;17.058;2023-10-08T06:05:54;9.32;;;2.63;;
68310;SDS011;55157;51.036;17.058;2023-10-08T06:08:19;5.78;;;2.53;;
68310;SDS011;55157;51.036;17.058;2023-10-08T06:10:46;6.95;;;2.72;;
68310;SDS011;55157;51.036;17.058;2023-10-08T06:13:12;10.10;;;3.30;;
68310;SDS011;55157;51.036;17.058;2023-10-08T06:15:38;7.95;;;2.85;;
68310;SDS011;55157;51.036;17.058;2023-10-08T06:18:03;8.20;;;3.30;;
68310;SDS011;55157;51.036;17.058;2023-10-08T06:20:28;6.65;;;2.95;;
68310;SDS011;55157;51.036;17.058;2023-10-08T06:22:54;9.50;;;4.05;;
68310;SDS011;55157;51.036;17.058;2023-10-08T06:25:19;9.07;;;3.60;;
68310;SDS011;55157;51.036;17.058;2023-10-08T06:27:45;10.23;;;3.60;;
68310;SDS011;55157;51.036;17.058;2023-10-08T06:30:11;10.90;;;3.63;;
68310;SDS011;55157;51.036;17.058;2023-10-08T06:32:36;7.55;;;3.35;;
68310;SDS011;55157;51.036;17.058;2023-10-08T06:35:02;9.65;;;3.42;;
68310;SDS011;55157;51.036;17.058;2023-10-08T06:37:27;11.55;;;3.72;;
68310;SDS011;55157;51.036;17.058;2023-10-08T06:39:52;12.02;;;4.20;;
68310;SDS011;55157;51.036;17.058;2023-10-08T06:42:17;12.27;;;4.22;;
68310;SDS011;55157;51.036;17.058;2023-10-08T06:44:45;9.52;;;3.45;;
68310;SDS011;55157;51.036;17.058;2023-10-08T06:47:10;10.68;;;4.20;;
68310;SDS011;55157;51.036;17.058;2023-10-08T06:49:35;11.23;;;3.88;;
68310;SDS011;55157;51.036;17.058;2023-10-08T06:52:01;12.40;;;4.68;;
68310;SDS011;55157;51.036;17.058;2023-10-08T06:54:26;9.55;;;4.35;;
68310;SDS011;55157;51.036;17.058;2023-10-08T06:56:51;14.02;;;4.60;;
68310;SDS011;55157;51.036;17.058;2023-10-08T06:59:17;14.15;;;4.15;;
68310;SDS011;55157;51.036;17.058;2023-10-08T07:01:43;7.82;;;3.92;;
68310;SDS011;55157;51.036;17.058;2023-10-08T07:04:09;11.27;;;4.97;;
68310;SDS011;55157;51.036;17.058;2023-10-08T07:06:34;10.65;;;4.40;;
68310;SDS011;55157;51.036;17.058;2023-10-08T07:08:59;7.32;;;3.63;;
68310;SDS011;55157;51.036;17.058;2023-10-08T07:11:25;10.75;;;4.05;;
68310;SDS011;55157;51.036;17.058;2023-10-08T07:13:50;5.60;;;3.30;;
68310;SDS011;55157;51.036;17.058;2023-10-08T07:16:15;7.85;;;3.90;;
68310;SDS011;55157;51.036;17.058;2023-10-08T07:18:42;8.05;;;3.20;;
68310;SDS011;55157;51.036;17.058;2023-10-08T07:21:07;11.05;;;3.42;;
68310;SDS011;55157;51.036;17.058;2023-10-08T07:23:32;8.35;;;3.05;;
68310;SDS011;55157;51.036;17.058;2023-10-08T07:25:58;11.07;;;3.50;;
68310;SDS011;55157;51.036;17.058;2023-10-08T07:28:24;5.43;;;2.80;;
68310;SDS011;55157;51.036;17.058;2023-10-08T07:30:49;5.85;;;2.42;;
68310;SDS011;55157;51.036;17.058;2023-10-08T07:33:15;6.78;;;2.60;;
68310;SDS011;55157;51.036;17.058;2023-10-08T07:35:42;7.18;;;2.70;;
68310;SDS011;55157;51.036;17.058;2023-10-08T07:38:07;4.95;;;2.42;;
68310;SDS011;55157;51.036;17.058;2023-10-08T07:40:32;5.88;;;2.85;;
68310;SDS011;55157;51.036;17.058;2023-10-08T07:42:57;3.80;;;2.20;;
68310;SDS011;55157;51.036;17.058;2023-10-08T07:45:23;7.90;;;1.58;;
68310;SDS011;55157;51.036;17.058;2023-10-08T07:47:48;4.93;;;1.48;;
68310;SDS011;55157;51.036;17.058;2023-10-08T07:50:13;4.32;;;1.50;;
68310;SDS011;55157;51.036;17.058;2023-10-08T07:52:40;4.22;;;1.65;;
68310;SDS011;55157;51.036;17.058;2023-10-08T07:55:05;3.60;;;1.45;;
68310;SDS011;55157;51.036;17.058;2023-10-08T07:57:31;4.45;;;1.55;;
68310;SDS011;55157;51.036;17.058;2023-10-08T07:59:56;5.45;;;1.70;;
68310;SDS011;55157;51.036;17.058;2023-10-08T08:02:21;3.70;;;1.90;;
68310;SDS011;55157;51.036;17.058;2023-10-08T08:04:50;9.65;;;2.35;;
68310;SDS011;55157;51.036;17.058;2023-10-08T08:07:15;6.70;;;1.90;;
68310;SDS011;55157;51.036;17.058;2023-10-08T08:09:42;2.58;;;1.40;;
68310;SDS011;55157;51.036;17.058;2023-10-08T08:12:07;6.15;;;1.75;;
68310;SDS011;55157;51.036;17.058;2023-10-08T08:14:32;2.92;;;1.40;;
68310;SDS011;55157;51.036;17.058;2023-10-08T08:16:57;3.23;;;1.17;;
68310;SDS011;55157;51.036;17.058;2023-10-08T08:19:23;4.85;;;1.10;;
68310;SDS011;55157;51.036;17.058;2023-10-08T08:21:48;2.72;;;1.33;;
68310;SDS011;55157;51.036;17.058;2023-10-08T08:24:13;6.27;;;1.93;;
68310;SDS011;55157;51.036;17.058;2023-10-08T08:26:40;1.92;;;1.10;;
68310;SDS011;55157;51.036;17.058;2023-10-08T08:29:05;4.03;;;1.48;;
68310;SDS011;55157;51.036;17.058;2023-10-08T08:31:30;4.03;;;1.35;;
68310;SDS011;55157;51.036;17.058;2023-10-08T08:33:56;2.60;;;1.10;;
68310;SDS011;55157;51.036;17.058;2023-10-08T08:36:21;3.58;;;1.15;;
68310;SDS011;55157;51.036;17.058;2023-10-08T08:38:46;2.15;;;1.20;;
68310;SDS011;55157;51.036;17.058;2023-10-08T08:41:12;2.42;;;0.88;;
68310;SDS011;55157;51.036;17.058;2023-10-08T08:43:39;2.23;;;1.07;;
68310;SDS011;55157;51.036;17.058;2023-10-08T08:46:04;2.28;;;1.10;;
68310;SDS011;55157;51.036;17.058;2023-10-08T08:48:29;2.75;;;0.98;;
68310;SDS011;55157;51.036;17.058;2023-10-08T08:50:55;1.95;;;1.00;;
68310;SDS011;55157;51.036;17.058;2023-10-08T08:53:21;4.85;;;0.90;;
68310;SDS011;55157;51.036;17.058;2023-10-08T08:55:46;2.17;;;1.00;;
68310;SDS011;55157;51.036;17.058;2023-10-08T08:58:11;3.35;;;1.10;;
68310;SDS011;55157;51.036;17.058;2023-10-08T09:00:38;1.33;;;0.93;;
68310;SDS011;55157;51.036;17.058;2023-10-08T09:03:03;2.22;;;1.08;;
68310;SDS011;55157;51.036;17.058;2023-10-08T09:05:29;3.03;;;1.80;;
68310;SDS011;55157;51.036;17.058;2023-10-08T09:07:57;4.97;;;2.60;;
68310;SDS011;55157;51.036;17.058;2023-10-08T09:10:23;6.65;;;4.10;;
68310;SDS011;55157;51.036;17.058;2023-10-08T09:12:48;11.07;;;7.85;;
68310;SDS011;55157;51.036;17.058;2023-10-08T09:15:14;4.63;;;2.43;;
68310;SDS011;55157;51.036;17.058;2023-10-08T09:17:42;4.47;;;1.80;;
68310;SDS011;55157;51.036;17.058;2023-10-08T09:20:07;3.97;;;1.30;;
68310;SDS011;55157;51.036;17.058;2023-10-08T09:22:33;4.65;;;1.30;;
68310;SDS011;55157;51.036;17.058;2023-10-08T09:24:58;2.15;;;1.08;;
68310;SDS011;55157;51.036;17.058;2023-10-08T09:27:23;5.57;;;1.00;;
68310;SDS011;55157;51.036;17.058;2023-10-08T09:29:51;7.40;;;1.85;;
68310;SDS011;55157;51.036;17.058;2023-10-08T09:32:16;2.97;;;1.42;;
68310;SDS011;55157;51.036;17.058;2023-10-08T09:34:42;2.67;;;0.80;;
68310;SDS011;55157;51.036;17.058;2023-10-08T09:37:09;2.13;;;1.10;;
68310;SDS011;55157;51.036;17.058;2023-10-08T09:39:35;1.42;;;1.00;;
68310;SDS011;55157;51.036;17.058;2023-10-08T09:42:02;3.13;;;1.40;;
68310;SDS011;55157;51.036;17.058;2023-10-08T09:44:28;1.15;;;0.82;;
68310;SDS011;55157;51.036;17.058;2023-10-08T09:46:54;2.05;;;1.50;;
68310;SDS011;55157;51.036;17.058;2023-10-08T09:49:21;2.45;;;1.10;;
68310;SDS011;55157;51.036;17.058;2023-10-08T09:51:49;1.77;;;0.98;;
68310;SDS011;55157;51.036;17.058;2023-10-08T09:54:15;2.38;;;1.00;;
68310;SDS011;55157;51.036;17.058;2023-10-08T09:56:40;1.77;;;0.80;;
68310;SDS011;55157;51.036;17.058;2023-10-08T09:59:06;2.77;;;0.83;;
68310;SDS011;55157;51.036;17.058;2023-10-08T10:01:31;1.38;;;0.60;;
68310;SDS011;55157;51.036;17.058;2023-10-08T10:03:57;2.50;;;0.73;;
68310;SDS011;55157;51.036;17.058;2023-10-08T10:06:22;2.30;;;1.00;;
68310;SDS011;55157;51.036;17.058;2023-10-08T10:08:48;2.08;;;0.85;;
68310;SDS011;55157;51.036;17.058;2023-10-08T10:11:14;2.33;;;0.73;;
68310;SDS011;55157;51.036;17.058;2023-10-08T10:13:41;1.67;;;0.82;;
68310;SDS011;55157;51.036;17.058;2023-10-08T10:16:06;2.63;;;0.90;;
68310;SDS011;55157;51.036;17.058;2023-10-08T10:18:32;2.10;;;0.83;;
68310;SDS011;55157;51.036;17.058;2023-10-08T10:20:58;1.35;;;0.60;;
68310;SDS011;55157;51.036;17.058;2023-10-08T10:23:36;0.90;;;0.68;;
68310;SDS011;55157;51.036;17.058;2023-10-08T10:26:04;2.00;;;0.63;;
68310;SDS011;55157;51.036;17.058;2023-10-08T10:28:29;0.80;;;0.60;;
68310;SDS011;55157;51.036;17.058;2023-10-08T10:30:54;1.25;;;0.80;;
68310;SDS011;55157;51.036;17.058;2023-10-08T10:33:20;1.23;;;0.60;;
68310;SDS011;55157;51.036;17.058;2023-10-08T10:35:49;2.08;;;1.13;;
68310;SDS011;55157;51.036;17.058;2023-10-08T10:38:14;2.05;;;1.10;;
68310;SDS011;55157;51.036;17.058;2023-10-08T10:40:39;4.33;;;0.90;;
68310;SDS011;55157;51.036;17.058;2023-10-08T10:43:06;3.60;;;1.00;;
68310;SDS011;55157;51.036;17.058;2023-10-08T10:45:31;5.25;;;0.70;;
68310;SDS011;55157;51.036;17.058;2023-10-08T10:47:57;0.93;;;0.73;;
68310;SDS011;55157;51.036;17.058;2023-10-08T10:50:22;1.20;;;0.57;;
68310;SDS011;55157;51.036;17.058;2023-10-08T10:52:47;1.20;;;0.80;;
68310;SDS011;55157;51.036;17.058;2023-10-08T10:55:13;1.33;;;0.57;;
68310;SDS011;55157;51.036;17.058;2023-10-08T10:57:38;1.83;;;1.05;;
68310;SDS011;55157;51.036;17.058;2023-10-08T11:00:06;1.10;;;0.80;;
68310;SDS011;55157;51.036;17.058;2023-10-08T11:02:32;0.88;;;0.60;;
68310;SDS011;55157;51.036;17.058;2023-10-08T11:04:57;1.53;;;0.70;;
68310;SDS011;55157;51.036;17.058;2023-10-08T11:07:22;1.40;;;0.73;;
68310;SDS011;55157;51.036;17.058;2023-10-08T11:09:48;2.05;;;0.55;;
68310;SDS011;55157;51.036;17.058;2023-10-08T11:12:13;1.47;;;0.63;;
68310;SDS011;55157;51.036;17.058;2023-10-08T11:14:39;2.45;;;0.88;;
68310;SDS011;55157;51.036;17.058;2023-10-08T11:17:10;1.08;;;0.70;;
68310;SDS011;55157;51.036;17.058;2023-10-08T11:19:35;1.23;;;0.57;;
68310;SDS011;55157;51.036;17.058;2023-10-08T11:22:01;1.60;;;0.70;;
68310;SDS011;55157;51.036;17.058;2023-10-08T11:24:29;1.37;;;0.93;;
68310;SDS011;55157;51.036;17.058;2023-10-08T11:26:54;2.33;;;0.70;;
68310;SDS011;55157;51.036;17.058;2023-10-08T11:29:19;2.45;;;0.57;;
68310;SDS011;55157;51.036;17.058;2023-10-08T11:31:45;1.42;;;0.77;;
68310;SDS011;55157;51.036;17.058;2023-10-08T11:34:12;1.10;;;0.55;;
68310;SDS011;55157;51.036;17.058;2023-10-08T11:36:37;2.25;;;0.73;;
68310;SDS011;55157;51.036;17.058;2023-10-08T11:39:08;1.63;;;0.83;;
68310;SDS011;55157;51.036;17.058;2023-10-08T11:41:34;0.75;;;0.55;;
68310;SDS011;55157;51.036;17.058;2023-10-08T11:43:59;1.63;;;0.70;;
68310;SDS011;55157;51.036;17.058;2023-10-08T11:46:25;1.67;;;0.57;;
68310;SDS011;55157;51.036;17.058;2023-10-08T11:48:50;1.40;;;0.93;;
68310;SDS011;55157;51.036;17.058;2023-10-08T11:51:16;1.80;;;0.80;;
68310;SDS011;55157;51.036;17.058;2023-10-08T11:53:42;1.58;;;0.80;;
68310;SDS011;55157;51.036;17.058;2023-10-08T11:56:07;1.77;;;0.60;;
68310;SDS011;55157;51.036;17.058;2023-10-08T11:58:32;1.95;;;0.90;;
68310;SDS011;55157;51.036;17.058;2023-10-08T12:00:58;1.20;;;0.60;;
68310;SDS011;55157;51.036;17.058;2023-10-08T12:03:23;1.57;;;1.00;;
68310;SDS011;55157;51.036;17.058;2023-10-08T12:05:48;1.03;;;0.70;;
68310;SDS011;55157;51.036;17.058;2023-10-08T12:08:15;1.65;;;0.90;;
68310;SDS011;55157;51.036;17.058;2023-10-08T12:10:41;1.38;;;0.90;;
68310;SDS011;55157;51.036;17.058;2023-10-08T12:13:06;1.60;;;0.80;;
68310;SDS011;55157;51.036;17.058;2023-10-08T12:15:31;0.80;;;0.70;;
68310;SDS011;55157;51.036;17.058;2023-10-08T12:17:57;2.33;;;1.38;;
68310;SDS011;55157;51.036;17.058;2023-10-08T12:20:22;1.83;;;0.77;;
68310;SDS011;55157;51.036;17.058;2023-10-08T12:22:47;4.13;;;0.93;;
68310;SDS011;55157;51.036;17.058;2023-10-08T12:25:14;1.27;;;0.85;;
68310;SDS011;55157;51.036;17.058;2023-10-08T12:27:39;1.63;;;0.75;;
68310;SDS011;55157;51.036;17.058;2023-10-08T12:30:05;2.22;;;0.85;;
68310;SDS011;55157;51.036;17.058;2023-10-08T12:32:30;1.30;;;0.80;;
68310;SDS011;55157;51.036;17.058;2023-10-08T12:34:56;1.07;;;0.80;;
68310;SDS011;55157;51.036;17.058;2023-10-08T12:37:21;1.83;;;0.80;;
68310;SDS011;55157;51.036;17.058;2023-10-08T12:39:46;1.77;;;0.80;;
68310;SDS011;55157;51.036;17.058;2023-10-08T12:42:13;1.87;;;0.83;;
68310;SDS011;55157;51.036;17.058;2023-10-08T12:44:38;2.15;;;1.00;;
68310;SDS011;55157;51.036;17.058;2023-10-08T12:47:03;5.18;;;1.02;;
68310;SDS011;55157;51.036;17.058;2023-10-08T12:49:29;1.25;;;0.70;;
68310;SDS011;55157;51.036;17.058;2023-10-08T12:51:54;2.08;;;0.90;;
68310;SDS011;55157;51.036;17.058;2023-10-08T12:54:19;0.97;;;0.67;;
68310;SDS011;55157;51.036;17.058;2023-10-08T12:56:44;1.43;;;0.80;;
68310;SDS011;55157;51.036;17.058;2023-10-08T12:59:11;1.30;;;0.80;;
68310;SDS011;55157;51.036;17.058;2023-10-08T13:01:36;2.13;;;0.90;;
68310;SDS011;55157;51.036;17.058;2023-10-08T13:04:02;2.03;;;1.00;;
68310;SDS011;55157;51.036;17.058;2023-10-08T13:06:27;1.08;;;0.82;;
68310;SDS011;55157;51.036;17.058;2023-10-08T13:08:52;3.25;;;0.85;;
68310;SDS011;55157;51.036;17.058;2023-10-08T13:11:18;1.95;;;0.90;;
68310;SDS011;55157;51.036;17.058;2023-10-08T13:13:43;0.60;;;0.57;;
68310;SDS011;55157;51.036;17.058;2023-10-08T13:16:10;2.20;;;0.80;;
68310;SDS011;55157;51.036;17.058;2023-10-08T13:18:35;2.22;;;0.93;;
68310;SDS011;55157;51.036;17.058;2023-10-08T13:21:00;1.95;;;0.82;;
68310;SDS011;55157;51.036;17.058;2023-10-08T13:23:26;1.33;;;0.88;;
68310;SDS011;55157;51.036;17.058;2023-10-08T13:25:51;1.00;;;0.80;;
68310;SDS011;55157;51.036;17.058;2023-10-08T13:28:16;1.33;;;0.60;;
68310;SDS011;55157;51.036;17.058;2023-10-08T13:30:41;3.00;;;1.30;;
68310;SDS011;55157;51.036;17.058;2023-10-08T13:33:08;1.25;;;0.60;;
68310;SDS011;55157;51.036;17.058;2023-10-08T13:35:34;2.30;;;0.80;;
68310;SDS011;55157;51.036;17.058;2023-10-08T13:37:59;1.10;;;0.70;;
68310;SDS011;55157;51.036;17.058;2023-10-08T13:40:25;1.10;;;0.82;;
68310;SDS011;55157;51.036;17.058;2023-10-08T13:42:50;2.25;;;0.90;;
68310;SDS011;55157;51.036;17.058;2023-10-08T13:45:15;1.98;;;0.85;;
68310;SDS011;55157;51.036;17.058;2023-10-08T13:47:41;2.30;;;0.77;;
68310;SDS011;55157;51.036;17.058;2023-10-08T13:50:08;1.77;;;1.13;;
68310;SDS011;55157;51.036;17.058;2023-10-08T13:52:34;1.38;;;0.90;;
68310;SDS011;55157;51.036;17.058;2023-10-08T13:54:59;1.13;;;0.60;;
68310;SDS011;55157;51.036;17.058;2023-10-08T13:57:24;2.63;;;1.00;;
68310;SDS011;55157;51.036;17.058;2023-10-08T13:59:49;3.25;;;1.10;;
68310;SDS011;55157;51.036;17.058;2023-10-08T14:02:15;2.13;;;1.00;;
68310;SDS011;55157;51.036;17.058;2023-10-08T14:04:40;4.07;;;0.90;;
68310;SDS011;55157;51.036;17.058;2023-10-08T14:07:07;1.52;;;0.82;;
68310;SDS011;55157;51.036;17.058;2023-10-08T14:09:32;2.17;;;1.08;;
68310;SDS011;55157;51.036;17.058;2023-10-08T14:11:57;2.45;;;0.90;;
68310;SDS011;55157;51.036;17.058;2023-10-08T14:14:23;0.88;;;0.57;;
68310;SDS011;55157;51.036;17.058;2023-10-08T14:16:48;1.73;;;1.20;;
68310;SDS011;55157;51.036;17.058;2023-10-08T14:19:13;3.03;;;1.08;;
68310;SDS011;55157;51.036;17.058;2023-10-08T14:21:39;1.30;;;0.77;;
68310;SDS011;55157;51.036;17.058;2023-10-08T14:24:06;4.35;;;0.98;;